Time;durP1;ratioP1;P1;durP2;ratioP2;P2;SDS_P1;SDS_P2;PMS_P1;PMS_P2;Temp;Humidity;BMP_temperature;BMP_pressure;BME280_temperature;BME280_humidity;BME280_pressure;Samples;Min_cycle;Max_cycle;Signal;HPM_P1;HPM_P2
2022/10/24 00:01:30;;;;;;;;;;;17.40;73.90;;;;;;5179008;27;19922;-69
2022/10/24 00:03:56;;;;;;;;;;;17.50;73.60;;;;;;5178561;27;20377;-69
2022/10/24 00:06:22;;;;;;;;;;;17.60;73.40;;;;;;5178864;27;19918;-71
2022/10/24 00:08:48;;;;;;;;;;;17.70;73.10;;;;;;5178888;27;19961;-69
2022/10/24 00:11:22;;;;;;;;;;;17.80;72.90;;;;;;5197263;27;19925;-71
2022/10/24 00:13:48;;;;;;;;;;;17.90;72.60;;;;;;5178507;27;19923;-69
2022/10/24 00:16:13;;;;;;;;;;;18.00;72.40;;;;;;5197121;27;19926;-71
2022/10/24 00:18:39;;;;;;;;;;;18.10;72.10;;;;;;5197144;27;19918;-71
2022/10/24 00:21:05;;;;;;;;;;;18.20;71.90;;;;;;5178557;27;19925;-69
2022/10/24 00:23:30;;;;;;;;;;;18.20;71.80;;;;;;5178532;27;19965;-69
2022/10/24 00:26:00;;;;;;;;;;;18.40;71.50;;;;;;5178036;27;19949;-69
2022/10/24 00:28:26;;;;;;;;;;;18.40;72.00;;;;;;5197033;27;20009;-69
2022/10/24 00:30:52;;;;;;;;;;;18.50;71.10;;;;;;5178305;27;19922;-69
2022/10/24 00:33:17;;;;;;;;;;;18.60;70.90;;;;;;5196768;27;19923;-69
2022/10/24 00:35:43;;;;;;;;;;;18.60;70.70;;;;;;5178206;27;19918;-69
2022/10/24 00:38:08;;;;;;;;;;;18.70;70.60;;;;;;5178012;27;19918;-69
2022/10/24 00:40:34;;;;;;;;;;;18.70;70.30;;;;;;5177828;27;19925;-71
2022/10/24 00:42:59;;;;;;;;;;;18.80;70.20;;;;;;5196345;27;19925;-71
2022/10/24 00:45:37;;;;;;;;;;;18.90;69.90;;;;;;5196780;27;19918;-70
2022/10/24 00:48:09;;;;;;;;;;;19.00;69.70;;;;;;5178011;27;20361;-69
2022/10/24 00:50:34;;;;;;;;;;;19.10;69.60;;;;;;5196543;27;20425;-69
2022/10/24 00:53:00;;;;;;;;;;;19.20;69.40;;;;;;5177623;27;20017;-70
2022/10/24 00:55:25;;;;;;;;;;;19.20;69.30;;;;;;5177522;27;20009;-71
2022/10/24 00:57:53;;;;;;;;;;;19.20;69.10;;;;;;5177834;27;19923;-69
2022/10/24 01:00:21;;;;;;;;;;;19.30;69.00;;;;;;5177591;27;19962;-69
2022/10/24 01:02:47;;;;;;;;;;;19.30;68.90;;;;;;5196391;27;19926;-69
2022/10/24 01:05:13;;;;;;;;;;;19.30;68.80;;;;;;5177534;27;20398;-69
2022/10/24 01:10:31;;;;;;;;;;;19.40;68.60;;;;;;5122564;27;19955;-69
2022/10/24 01:13:08;;;;;;;;;;;19.50;68.50;;;;;;5088537;28;19921;-69
2022/10/24 01:18:31;;;;;;;;;;;19.50;68.20;;;;;;5122441;27;19913;-69
2022/10/24 01:21:17;;;;;;;;;;;19.50;68.00;;;;;;5088884;28;19943;-69
2022/10/24 01:29:21;;;;;;;;;;;19.80;67.70;;;;;;5166198;27;798179;-69
2022/10/24 01:31:52;;;;;;;;;;;19.80;67.60;;;;;;5195079;27;19922;-69
2022/10/24 01:34:37;;;;;;;;;;;19.80;67.40;;;;;;5195520;27;19922;-69
2022/10/24 01:37:04;;;;;;;;;;;19.80;67.40;;;;;;5195413;27;19941;-69
2022/10/24 01:39:33;;;;;;;;;;;20.00;67.30;;;;;;5178916;27;19926;-71
2022/10/24 01:42:00;;;;;;;;;;;19.90;67.20;;;;;;5174244;27;19924;-69
2022/10/24 01:44:29;;;;;;;;;;;20.00;67.10;;;;;;5174210;27;20017;-69
2022/10/24 01:46:56;;;;;;;;;;;20.00;67.00;;;;;;5174377;27;19934;-71
2022/10/24 01:49:25;;;;;;;;;;;20.10;66.90;;;;;;5174461;27;19919;-71
2022/10/24 01:51:52;;;;;;;;;;;20.10;66.80;;;;;;5192787;27;19918;-71
2022/10/24 01:54:18;;;;;;;;;;;20.10;66.70;;;;;;5174278;27;19919;-69
2022/10/24 01:56:43;;;;;;;;;;;20.20;66.60;;;;;;5192722;27;20449;-69
2022/10/24 02:05:04;;;;;;;;;;;20.30;66.30;;;;;;5122835;27;19919;-71
2022/10/24 02:07:32;;;;;;;;;;;20.30;66.10;;;;;;5088737;28;20372;-70
2022/10/24 02:10:01;;;;;;;;;;;20.40;66.10;;;;;;5089767;28;19920;-70
2022/10/24 02:12:27;;;;;;;;;;;20.40;66.10;;;;;;5088497;28;19920;-69
2022/10/24 02:14:56;;;;;;;;;;;20.40;66.00;;;;;;5088322;28;19921;-69
2022/10/24 02:17:22;;;;;;;;;;;20.40;65.90;;;;;;5088437;28;19927;-71
2022/10/24 02:19:48;;;;;;;;;;;20.40;65.90;;;;;;5088426;28;19921;-69
2022/10/24 02:25:09;;;;;;;;;;;20.40;65.90;;;;;;5164319;27;19912;-69
2022/10/24 02:27:55;;;;;;;;;;;20.40;65.90;;;;;;5129420;28;19927;-70
2022/10/24 02:30:22;;;;;;;;;;;20.30;65.90;;;;;;5164122;27;20284;-70
2022/10/24 02:32:49;;;;;;;;;;;20.30;65.90;;;;;;5112610;28;19919;-71
2022/10/24 02:35:17;;;;;;;;;;;20.30;65.90;;;;;;5129275;28;19920;-69
2022/10/24 02:37:43;;;;;;;;;;;20.30;65.90;;;;;;5163859;27;19920;-71
2022/10/24 02:40:10;;;;;;;;;;;20.20;65.90;;;;;;5129422;28;19920;-69
2022/10/24 02:42:37;;;;;;;;;;;20.20;66.00;;;;;;5129272;28;19923;-69
2022/10/24 02:45:03;;;;;;;;;;;20.20;66.10;;;;;;5130369;27;19926;-69
2022/10/24 02:47:30;;;;;;;;;;;20.20;66.80;;;;;;5129141;28;19966;-70
2022/10/24 02:49:55;;;;;;;;;;;20.10;66.00;;;;;;5128916;28;19941;-70
2022/10/24 02:52:22;;;;;;;;;;;20.10;66.10;;;;;;5130733;27;19919;-71
2022/10/24 02:54:48;;;;;;;;;;;20.10;66.10;;;;;;5128762;28;19959;-69
2022/10/24 02:57:14;;;;;;;;;;;20.10;66.10;;;;;;5128934;28;19920;-71
2022/10/24 02:59:40;;;;;;;;;;;20.10;66.10;;;;;;5128801;28;19920;-69
2022/10/24 03:02:05;;;;;;;;;;;20.10;66.10;;;;;;5129148;28;19923;-70
2022/10/24 03:04:31;;;;;;;;;;;20.10;66.20;;;;;;5128931;28;20290;-71
2022/10/24 03:06:56;;;;;;;;;;;20.10;66.10;;;;;;5128635;28;19920;-70
2022/10/24 03:09:22;;;;;;;;;;;20.10;66.10;;;;;;5128701;28;19931;-70
2022/10/24 03:11:47;;;;;;;;;;;20.10;66.20;;;;;;5129756;27;19920;-71
2022/10/24 03:14:13;;;;;;;;;;;20.10;66.10;;;;;;5127980;28;19920;-71
2022/10/24 03:16:38;;;;;;;;;;;20.10;66.10;;;;;;5128844;28;20015;-69
2022/10/24 03:19:04;;;;;;;;;;;20.10;66.10;;;;;;5128734;28;19928;-69
2022/10/24 03:21:29;;;;;;;;;;;20.10;66.20;;;;;;5128397;28;20291;-69
2022/10/24 03:23:55;;;;;;;;;;;20.10;66.10;;;;;;5128300;28;19924;-69
2022/10/24 03:26:20;;;;;;;;;;;20.10;66.00;;;;;;5128296;28;19931;-69
2022/10/24 03:28:46;;;;;;;;;;;20.10;66.10;;;;;;5128365;28;19919;-71
2022/10/24 03:31:12;;;;;;;;;;;20.10;66.00;;;;;;5129700;27;19959;-71
2022/10/24 03:33:37;;;;;;;;;;;20.10;66.00;;;;;;5128172;28;19972;-69
2022/10/24 03:36:04;;;;;;;;;;;20.10;66.00;;;;;;5116284;28;19972;-70
2022/10/24 03:38:29;;;;;;;;;;;20.10;65.90;;;;;;5115782;28;19928;-69
2022/10/24 03:40:55;;;;;;;;;;;20.10;65.90;;;;;;5115622;28;19924;-69
2022/10/24 03:43:21;;;;;;;;;;;20.20;66.00;;;;;;5114230;28;20344;-70
2022/10/24 03:45:46;;;;;;;;;;;20.20;66.00;;;;;;5114350;28;19920;-69
2022/10/24 03:48:12;;;;;;;;;;;20.10;65.90;;;;;;5114290;28;19920;-69
2022/10/24 03:50:37;;;;;;;;;;;20.20;65.90;;;;;;5114193;28;19920;-69
2022/10/24 03:53:03;;;;;;;;;;;20.20;65.90;;;;;;5114615;28;19927;-69
2022/10/24 03:55:29;;;;;;;;;;;20.20;65.90;;;;;;5114156;28;20014;-69
2022/10/24 03:57:54;;;;;;;;;;;20.20;65.90;;;;;;5114197;28;19931;-69
2022/10/24 04:00:20;;;;;;;;;;;20.20;65.80;;;;;;5114401;28;19956;-69
2022/10/24 04:02:46;;;;;;;;;;;20.20;65.90;;;;;;5115306;28;19919;-69
2022/10/24 04:05:12;;;;;;;;;;;20.20;65.80;;;;;;5115627;28;19979;-69
2022/10/24 04:07:38;;;;;;;;;;;20.20;65.70;;;;;;5113838;28;20173;-69
2022/10/24 04:10:04;;;;;;;;;;;20.20;65.70;;;;;;5114134;28;19920;-69
2022/10/24 04:12:30;;;;;;;;;;;20.20;65.80;;;;;;5114088;28;19943;-69
2022/10/24 04:14:56;;;;;;;;;;;20.20;65.70;;;;;;5148145;27;20385;-69
2022/10/24 04:17:21;;;;;;;;;;;20.20;65.70;;;;;;5113750;28;19920;-69
2022/10/24 04:19:47;;;;;;;;;;;20.30;65.70;;;;;;5115083;28;19920;-69
2022/10/24 04:22:12;;;;;;;;;;;20.20;65.60;;;;;;5115138;28;19926;-71
2022/10/24 04:24:38;;;;;;;;;;;20.20;65.60;;;;;;5114422;28;19924;-71
2022/10/24 04:27:04;;;;;;;;;;;20.20;65.50;;;;;;5114748;28;19924;-71
2022/10/24 04:29:29;;;;;;;;;;;20.20;65.50;;;;;;5114689;28;20015;-69
2022/10/24 04:31:55;;;;;;;;;;;20.30;65.50;;;;;;5113454;28;19955;-69
2022/10/24 04:34:20;;;;;;;;;;;20.20;65.40;;;;;;5114612;28;19976;-69
2022/10/24 04:36:46;;;;;;;;;;;20.30;65.40;;;;;;5113702;28;20538;-69
2022/10/24 04:39:11;;;;;;;;;;;20.30;65.40;;;;;;5113110;28;20367;-70
2022/10/24 04:41:37;;;;;;;;;;;20.30;65.40;;;;;;5114581;28;20018;-71
2022/10/24 04:44:02;;;;;;;;;;;20.30;65.30;;;;;;5114315;28;20375;-71
2022/10/24 04:46:28;;;;;;;;;;;20.30;65.30;;;;;;5113859;28;19946;-71
2022/10/24 04:48:54;;;;;;;;;;;20.30;65.30;;;;;;5113257;28;19955;-69
2022/10/24 04:51:19;;;;;;;;;;;20.30;65.40;;;;;;5114306;28;20430;-71
2022/10/24 04:53:45;;;;;;;;;;;20.30;65.20;;;;;;5112934;28;19926;-69
2022/10/24 04:56:10;;;;;;;;;;;20.30;65.20;;;;;;5113005;28;19930;-70
2022/10/24 04:58:36;;;;;;;;;;;20.30;65.20;;;;;;5113159;28;20079;-71
2022/10/24 05:01:01;;;;;;;;;;;20.30;65.20;;;;;;5114035;28;20031;-69
2022/10/24 05:03:27;;;;;;;;;;;20.30;65.20;;;;;;5112676;28;19928;-69
2022/10/24 05:05:53;;;;;;;;;;;20.30;65.10;;;;;;5113992;28;19920;-69
2022/10/24 05:08:18;;;;;;;;;;;20.40;64.90;;;;;;5111762;28;20291;-70
2022/10/24 05:10:44;;;;;;;;;;;20.40;64.70;;;;;;5112291;28;19920;-71
2022/10/24 05:13:09;;;;;;;;;;;20.40;64.20;;;;;;5112763;28;20363;-70
2022/10/24 05:15:35;;;;;;;;;;;20.40;63.80;;;;;;5111876;28;19920;-71
2022/10/24 05:18:01;;;;;;;;;;;20.50;64.60;;;;;;5112788;28;20294;-70
2022/10/24 05:20:27;;;;;;;;;;;20.50;63.70;;;;;;5113732;28;19919;-71
2022/10/24 05:22:53;;;;;;;;;;;20.50;63.60;;;;;;5112459;28;19927;-69
2022/10/24 05:25:18;;;;;;;;;;;20.50;63.50;;;;;;5112083;28;19923;-69
2022/10/24 05:27:44;;;;;;;;;;;20.50;63.20;;;;;;5146892;27;19920;-66
2022/10/24 05:30:10;;;;;;;;;;;20.50;63.60;;;;;;5111106;28;19920;-69
2022/10/24 05:32:36;;;;;;;;;;;20.50;63.20;;;;;;5113350;28;20274;-70
2022/10/24 05:35:02;;;;;;;;;;;20.50;62.90;;;;;;5111380;28;20286;-69
2022/10/24 05:37:27;;;;;;;;;;;20.50;62.30;;;;;;5111455;28;19919;-70
2022/10/24 05:39:53;;;;;;;;;;;20.50;61.90;;;;;;5111920;28;19930;-72
2022/10/24 05:42:18;;;;;;;;;;;20.50;62.20;;;;;;5106931;28;19930;-70
2022/10/24 05:44:44;;;;;;;;;;;20.50;62.80;;;;;;5107814;28;19924;-70
2022/10/24 05:47:09;;;;;;;;;;;20.50;61.80;;;;;;5108610;28;19926;-72
2022/10/24 05:49:35;;;;;;;;;;;20.50;61.80;;;;;;5106012;28;19927;-71
2022/10/24 05:52:01;;;;;;;;;;;20.50;62.00;;;;;;5143144;27;19955;-70
2022/10/24 05:54:26;;;;;;;;;;;20.50;61.10;;;;;;5111497;28;20240;-70
2022/10/24 05:56:52;;;;;;;;;;;20.50;61.00;;;;;;5110570;28;20481;-70
2022/10/24 05:59:17;;;;;;;;;;;20.50;61.30;;;;;;5109183;28;19972;-72
2022/10/24 06:01:43;;;;;;;;;;;20.50;61.70;;;;;;5110065;28;20151;-71
2022/10/24 06:04:08;;;;;;;;;;;20.50;61.30;;;;;;5108413;28;19927;-72
2022/10/24 06:06:38;;;;;;;;;;;20.50;62.00;;;;;;5112990;27;20283;-68
2022/10/24 06:09:04;;;;;;;;;;;20.50;62.40;;;;;;5099414;28;20010;-68
2022/10/24 06:11:29;;;;;;;;;;;20.50;62.10;;;;;;5100067;28;20015;-67
2022/10/24 06:13:55;;;;;;;;;;;20.50;62.50;;;;;;5098532;28;19927;-70
2022/10/24 06:16:20;;;;;;;;;;;20.50;62.50;;;;;;5092096;28;19924;-69
2022/10/24 06:18:46;;;;;;;;;;;20.50;62.50;;;;;;5131493;27;20269;-66
2022/10/24 06:21:12;;;;;;;;;;;20.60;61.90;;;;;;5089143;28;19973;-66
2022/10/24 06:23:38;;;;;;;;;;;20.60;62.40;;;;;;5094293;28;19924;-66
2022/10/24 06:26:07;;;;;;;;;;;20.60;61.90;;;;;;5093825;28;20006;-66
2022/10/24 06:28:33;;;;;;;;;;;20.60;61.80;;;;;;5094612;28;19995;-66
2022/10/24 06:31:02;;;;;;;;;;;20.60;61.60;;;;;;5091266;28;19928;-67
2022/10/24 06:33:27;;;;;;;;;;;20.70;61.70;;;;;;5103103;28;19984;-66
2022/10/24 06:35:53;;;;;;;;;;;20.60;61.40;;;;;;5089892;28;19919;-67
2022/10/24 06:38:18;;;;;;;;;;;20.60;61.50;;;;;;5096628;28;20366;-67
2022/10/24 06:40:44;;;;;;;;;;;20.70;61.40;;;;;;5093220;28;20298;-66
2022/10/24 06:43:09;;;;;;;;;;;20.60;61.50;;;;;;5092548;28;19928;-67
2022/10/24 06:45:36;;;;;;;;;;;20.60;61.70;;;;;;5097126;28;20427;-67
2022/10/24 06:48:02;;;;;;;;;;;20.70;61.80;;;;;;5093031;28;19925;-67
2022/10/24 06:50:27;;;;;;;;;;;20.70;61.70;;;;;;5126359;27;19924;-67
2022/10/24 06:52:53;;;;;;;;;;;20.70;61.40;;;;;;5093113;28;19974;-67
2022/10/24 06:55:18;;;;;;;;;;;20.60;61.20;;;;;;5093432;28;19924;-67
2022/10/24 06:57:44;;;;;;;;;;;20.70;61.20;;;;;;5128324;27;19927;-66
2022/10/24 07:00:10;;;;;;;;;;;20.60;61.20;;;;;;5088383;28;19928;-67
2022/10/24 07:02:35;;;;;;;;;;;20.60;62.00;;;;;;5087921;28;20286;-66
2022/10/24 07:05:01;;;;;;;;;;;20.60;61.90;;;;;;5089011;28;19931;-67
2022/10/24 07:07:27;;;;;;;;;;;20.70;62.00;;;;;;5094302;28;19999;-67
2022/10/24 07:09:53;;;;;;;;;;;20.70;62.40;;;;;;5095580;28;20436;-67
2022/10/24 07:12:19;;;;;;;;;;;20.60;62.60;;;;;;5127474;27;20003;-69
2022/10/24 07:14:45;;;;;;;;;;;20.60;62.70;;;;;;5128701;27;19930;-69
2022/10/24 07:17:10;;;;;;;;;;;20.70;63.00;;;;;;5092634;28;19928;-67
2022/10/24 07:19:36;;;;;;;;;;;20.70;62.90;;;;;;5089891;28;19928;-68
2022/10/24 07:22:01;;;;;;;;;;;20.70;62.90;;;;;;5093185;28;19924;-72
2022/10/24 07:24:27;;;;;;;;;;;20.70;63.20;;;;;;5091278;28;19934;-70
2022/10/24 07:26:53;;;;;;;;;;;20.70;63.40;;;;;;5097070;27;19924;-68
2022/10/24 07:29:18;;;;;;;;;;;20.80;63.30;;;;;;5095526;27;19924;-68
2022/10/24 07:31:45;;;;;;;;;;;20.70;63.30;;;;;;5094500;28;19923;-67
2022/10/24 07:34:10;;;;;;;;;;;20.70;63.60;;;;;;5097763;28;19920;-68
2022/10/24 07:36:36;;;;;;;;;;;20.70;63.30;;;;;;5098707;27;19931;-66
2022/10/24 07:39:02;;;;;;;;;;;20.70;63.70;;;;;;5093769;28;19919;-69
2022/10/24 07:41:28;;;;;;;;;;;20.80;63.70;;;;;;5093973;28;19931;-66
2022/10/24 07:43:55;;;;;;;;;;;20.80;63.70;;;;;;5093639;28;20387;-66
2022/10/24 07:46:21;;;;;;;;;;;20.80;63.20;;;;;;5095734;28;20387;-72
2022/10/24 07:48:48;;;;;;;;;;;20.80;63.10;;;;;;5096029;28;19977;-67
2022/10/24 07:51:14;;;;;;;;;;;20.80;63.10;;;;;;5112535;27;19931;-68
2022/10/24 07:53:40;;;;;;;;;;;20.80;63.30;;;;;;5095463;28;20283;-67
2022/10/24 07:56:09;;;;;;;;;;;20.80;63.40;;;;;;5095269;27;19924;-68
2022/10/24 07:58:35;;;;;;;;;;;20.80;63.20;;;;;;5094572;28;20303;-67
2022/10/24 08:01:02;;;;;;;;;;;20.80;63.30;;;;;;5103333;28;19927;-68
2022/10/24 08:03:27;;;;;;;;;;;20.80;63.30;;;;;;5094097;28;20450;-68
2022/10/24 08:05:55;;;;;;;;;;;20.80;63.30;;;;;;5093868;27;19988;-68
2022/10/24 08:08:21;;;;;;;;;;;20.80;63.30;;;;;;5094437;28;19928;-67
2022/10/24 08:10:47;;;;;;;;;;;20.90;63.30;;;;;;5126372;27;19919;-68
2022/10/24 08:13:12;;;;;;;;;;;20.80;63.10;;;;;;5096384;28;20414;-73
2022/10/24 08:15:38;;;;;;;;;;;20.80;63.30;;;;;;5096431;27;19935;-69
2022/10/24 08:18:03;;;;;;;;;;;20.90;63.20;;;;;;5095087;28;20042;-69
2022/10/24 08:20:29;;;;;;;;;;;20.80;62.80;;;;;;5089038;28;19921;-69
2022/10/24 08:22:54;;;;;;;;;;;20.80;62.80;;;;;;5090847;28;19930;-69
2022/10/24 08:25:21;;;;;;;;;;;20.80;62.90;;;;;;5093255;28;19932;-67
2022/10/24 08:27:46;;;;;;;;;;;20.80;62.90;;;;;;5091199;28;19928;-67
2022/10/24 08:30:12;;;;;;;;;;;20.80;63.40;;;;;;5123266;27;19928;-68
2022/10/24 08:32:37;;;;;;;;;;;20.80;63.50;;;;;;5090869;28;19943;-69
2022/10/24 08:35:04;;;;;;;;;;;20.80;63.70;;;;;;5089731;27;20016;-69
2022/10/24 08:37:29;;;;;;;;;;;20.80;63.80;;;;;;5087289;28;19940;-69
2022/10/24 08:39:55;;;;;;;;;;;20.80;63.50;;;;;;5091048;28;19919;-69
2022/10/24 08:42:22;;;;;;;;;;;20.80;63.30;;;;;;5090420;28;19977;-71
2022/10/24 08:44:47;;;;;;;;;;;20.70;63.20;;;;;;5092729;28;19935;-69
2022/10/24 08:47:33;;;;;;;;;;;20.70;63.10;;;;;;5089915;28;19924;-68
2022/10/24 08:52:43;;;;;;;;;;;20.80;63.20;;;;;;5053768;28;20291;-68
2022/10/24 08:55:19;;;;;;;;;;;20.70;63.30;;;;;;5060218;28;20564;-68
2022/10/24 08:57:48;;;;;;;;;;;20.70;63.50;;;;;;5057180;28;20397;-69
2022/10/24 09:00:18;;;;;;;;;;;20.70;63.50;;;;;;5062752;28;19940;-69
2022/10/24 09:02:47;;;;;;;;;;;20.70;63.60;;;;;;5054564;28;20466;-69
2022/10/24 09:08:00;;;;;;;;;;;20.60;63.50;;;;;;5075255;27;20260;-67
2022/10/24 09:10:34;;;;;;;;;;;20.70;63.50;;;;;;5057994;28;19928;-73
2022/10/24 09:12:59;;;;;;;;;;;20.70;63.70;;;;;;5058627;28;19929;-66
2022/10/24 09:15:28;;;;;;;;;;;20.60;63.70;;;;;;5055063;28;19929;-66
2022/10/24 09:17:55;;;;;;;;;;;20.60;63.80;;;;;;5051710;28;19924;-66
2022/10/24 09:23:03;;;;;;;;;;;20.60;63.90;;;;;;5078498;27;20417;-69
2022/10/24 09:25:30;;;;;;;;;;;20.70;64.30;;;;;;5052259;28;19982;-67
2022/10/24 09:27:56;;;;;;;;;;;20.70;64.40;;;;;;5069771;28;19927;-69
2022/10/24 09:30:25;;;;;;;;;;;20.70;64.40;;;;;;5068667;28;19924;-68
2022/10/24 09:32:51;;;;;;;;;;;20.70;64.40;;;;;;5072037;28;19926;-68
2022/10/24 09:35:22;;;;;;;;;;;20.70;64.30;;;;;;5064178;28;19978;-69
2022/10/24 09:37:48;;;;;;;;;;;20.70;64.40;;;;;;5081257;28;19924;-69
2022/10/24 09:40:18;;;;;;;;;;;20.70;64.30;;;;;;5099778;28;19924;-69
2022/10/24 09:43:03;;;;;;;;;;;20.70;64.30;;;;;;5063922;28;19954;-69
2022/10/24 09:45:37;;;;;;;;;;;20.70;64.30;;;;;;5065284;28;20599;-72
2022/10/24 09:48:15;;;;;;;;;;;20.70;64.70;;;;;;5099458;28;20633;-69
2022/10/24 09:50:41;;;;;;;;;;;20.80;64.70;;;;;;5098189;28;21497;-68
2022/10/24 09:53:19;;;;;;;;;;;20.80;64.70;;;;;;5066554;28;19925;-68
2022/10/24 09:55:45;;;;;;;;;;;20.70;64.60;;;;;;5065039;28;19932;-68
2022/10/24 09:58:16;;;;;;;;;;;20.80;64.70;;;;;;5095854;28;19924;-66
2022/10/24 10:00:42;;;;;;;;;;;20.80;64.60;;;;;;5059120;28;19932;-70
2022/10/24 10:03:23;;;;;;;;;;;20.70;64.60;;;;;;5064574;28;19925;-66
2022/10/24 10:05:49;;;;;;;;;;;20.80;64.80;;;;;;5103827;28;19927;-66
2022/10/24 10:08:20;;;;;;;;;;;20.80;64.80;;;;;;5083781;28;19986;-66
2022/10/24 10:10:55;;;;;;;;;;;20.80;64.90;;;;;;5068860;28;19963;-66
2022/10/24 10:13:23;;;;;;;;;;;20.80;65.00;;;;;;5075000;28;19930;-66
2022/10/24 10:15:51;;;;;;;;;;;20.80;65.30;;;;;;5088322;28;19929;-65
2022/10/24 10:18:21;;;;;;;;;;;20.80;65.30;;;;;;5066172;28;19921;-66
2022/10/24 10:21:07;;;;;;;;;;;20.80;64.80;;;;;;5068511;28;19924;-66
2022/10/24 10:26:19;;;;;;;;;;;20.90;64.70;;;;;;5078536;27;19920;-67
2022/10/24 10:28:46;;;;;;;;;;;20.90;64.50;;;;;;5090195;28;20551;-67
2022/10/24 10:31:13;;;;;;;;;;;20.80;64.40;;;;;;5084219;28;20007;-69
2022/10/24 10:33:44;;;;;;;;;;;20.90;64.30;;;;;;5053714;28;19924;-69
2022/10/24 10:36:14;;;;;;;;;;;20.90;64.30;;;;;;5086563;28;19925;-71
2022/10/24 10:46:52;;;;;;;;;;;20.90;64.30;;;;;;5077387;27;19924;-68
2022/10/24 10:49:24;;;;;;;;;;;21.00;64.60;;;;;;5070710;28;19921;-69
2022/10/24 10:51:55;;;;;;;;;;;20.90;64.60;;;;;;5056810;28;20330;-70
2022/10/24 10:57:15;;;;;;;;;;;20.90;64.60;;;;;;5077610;27;20387;-67
2022/10/24 11:02:44;;;;;;;;;;;20.90;64.60;;;;;;5079773;27;20669;-69
2022/10/24 11:08:26;;;;;;;;;;;20.90;64.50;;;;;;5066812;27;20285;-69
2022/10/24 11:10:53;;;;;;;;;;;20.80;64.40;;;;;;5052926;28;19933;-68
2022/10/24 11:13:25;;;;;;;;;;;20.80;64.50;;;;;;5068864;28;19921;-69
2022/10/24 11:15:53;;;;;;;;;;;20.80;64.50;;;;;;5045904;28;20050;-69
2022/10/24 11:18:21;;;;;;;;;;;20.80;64.40;;;;;;5067819;28;20047;-69
2022/10/24 11:20:52;;;;;;;;;;;20.80;64.40;;;;;;5055152;28;19940;-70
2022/10/24 11:23:24;;;;;;;;;;;20.80;64.40;;;;;;5056466;28;19986;-69
2022/10/24 11:28:43;;;;;;;;;;;20.80;64.40;;;;;;5089677;27;19921;-69
2022/10/24 11:33:57;;;;;;;;;;;20.70;64.30;;;;;;5071838;27;19924;-68
2022/10/24 11:36:31;;;;;;;;;;;20.70;64.30;;;;;;5078096;28;20195;-67
2022/10/24 11:38:59;;;;;;;;;;;20.70;64.30;;;;;;5046662;28;19929;-68
2022/10/24 11:41:28;;;;;;;;;;;20.70;64.30;;;;;;5047792;28;19925;-68
2022/10/24 11:43:55;;;;;;;;;;;20.80;64.30;;;;;;5079221;28;19925;-67
2022/10/24 11:46:23;;;;;;;;;;;20.70;64.30;;;;;;5045720;28;20397;-69
2022/10/24 11:48:52;;;;;;;;;;;20.80;64.30;;;;;;5048792;28;19925;-67
2022/10/24 11:51:20;;;;;;;;;;;20.70;64.30;;;;;;5077929;28;19972;-66
2022/10/24 11:53:49;;;;;;;;;;;20.80;64.30;;;;;;5049459;28;19976;-67
2022/10/24 12:07:05;;;;;;;;;;;20.80;64.40;;;;;;5084725;27;19916;-68
2022/10/24 12:15:13;;;;;;;;;;;20.80;64.40;;;;;;5086356;27;1870515;-69
2022/10/24 12:17:44;;;;;;;;;;;20.80;64.30;;;;;;5115233;27;19989;-66
2022/10/24 12:20:12;;;;;;;;;;;20.80;64.40;;;;;;5125205;27;19923;-70
2022/10/24 12:22:40;;;;;;;;;;;20.80;64.30;;;;;;5118120;27;19933;-68
2022/10/24 12:25:14;;;;;;;;;;;20.80;64.30;;;;;;5118381;27;19920;-68
2022/10/24 12:27:40;;;;;;;;;;;20.70;64.30;;;;;;5120686;27;19931;-68
2022/10/24 12:32:49;;;;;;;;;;;20.80;64.30;;;;;;5063559;27;1860302;-68
2022/10/24 12:38:14;;;;;;;;;;;20.90;64.30;;;;;;5086383;27;20648;-67
2022/10/24 12:40:47;;;;;;;;;;;20.80;64.20;;;;;;5089667;28;19931;-68
2022/10/24 12:43:15;;;;;;;;;;;20.90;64.40;;;;;;5062983;28;19928;-67
2022/10/24 12:45:41;;;;;;;;;;;20.80;64.30;;;;;;5121174;27;20001;-66
2022/10/24 12:48:24;;;;;;;;;;;20.80;64.30;;;;;;5086557;28;19928;-67
2022/10/24 12:50:56;;;;;;;;;;;20.80;64.20;;;;;;5090545;28;19931;-67
2022/10/24 12:53:38;;;;;;;;;;;20.90;64.30;;;;;;5084281;28;20105;-68
2022/10/24 12:56:06;;;;;;;;;;;20.80;64.20;;;;;;5088592;28;20024;-68
2022/10/24 12:58:36;;;;;;;;;;;20.80;64.20;;;;;;5084390;28;19928;-68
2022/10/24 13:01:04;;;;;;;;;;;20.80;64.20;;;;;;5084240;28;20260;-67
2022/10/24 13:03:49;;;;;;;;;;;20.80;64.20;;;;;;5092505;28;19924;-67
2022/10/24 13:11:55;;;;;;;;;;;20.80;64.10;;;;;;5114272;27;19918;-67
2022/10/24 13:17:08;;;;;;;;;;;20.80;64.10;;;;;;5097164;27;1871559;-68
2022/10/24 13:19:34;;;;;;;;;;;20.90;64.10;;;;;;5136436;27;20140;-67
2022/10/24 13:22:01;;;;;;;;;;;20.80;64.10;;;;;;5137871;27;20362;-67
2022/10/24 13:24:35;;;;;;;;;;;20.80;64.00;;;;;;5139201;27;20302;-66
2022/10/24 13:27:21;;;;;;;;;;;20.90;64.00;;;;;;5138261;27;19919;-67
2022/10/24 13:32:31;;;;;;;;;;;20.80;64.00;;;;;;5090033;27;19926;-67
2022/10/24 13:34:58;;;;;;;;;;;20.90;64.20;;;;;;5081521;28;19920;-67
2022/10/24 13:37:29;;;;;;;;;;;20.90;64.00;;;;;;5103929;28;19924;-67
2022/10/24 13:39:59;;;;;;;;;;;20.90;64.00;;;;;;5075276;28;19951;-66
2022/10/24 13:45:20;;;;;;;;;;;21.30;64.30;;;;;;5061099;28;19917;-67
2022/10/24 13:47:49;;;;;;;;;;;20.90;64.00;;;;;;5076734;28;20003;-67
2022/10/24 13:50:19;;;;;;;;;;;20.90;64.00;;;;;;5071470;28;20376;-67
2022/10/24 13:52:49;;;;;;;;;;;20.90;64.00;;;;;;5070418;28;19921;-68
2022/10/24 13:57:59;;;;;;;;;;;20.90;64.00;;;;;;5061257;28;19949;-67
2022/10/24 14:00:26;;;;;;;;;;;20.90;63.80;;;;;;5062223;28;20208;-67
2022/10/24 14:02:52;;;;;;;;;;;20.90;64.10;;;;;;5066322;28;20341;-68
2022/10/24 14:05:22;;;;;;;;;;;21.00;64.00;;;;;;5070130;28;19974;-67
2022/10/24 14:07:48;;;;;;;;;;;20.90;63.80;;;;;;5072852;28;19963;-67
2022/10/24 14:10:15;;;;;;;;;;;20.90;63.90;;;;;;5063302;28;19972;-67
2022/10/24 14:12:43;;;;;;;;;;;21.00;64.00;;;;;;5062389;28;19920;-68
2022/10/24 14:15:28;;;;;;;;;;;21.00;63.90;;;;;;5065356;28;19934;-67
2022/10/24 14:17:56;;;;;;;;;;;21.00;63.90;;;;;;5062548;28;19968;-67
2022/10/24 14:20:23;;;;;;;;;;;21.00;63.80;;;;;;5063661;28;20449;-68
2022/10/24 14:22:49;;;;;;;;;;;21.00;63.80;;;;;;5064436;28;20287;-68
2022/10/24 14:28:02;;;;;;;;;;;21.00;63.70;;;;;;5124902;27;1862851;-67
2022/10/24 14:30:29;;;;;;;;;;;20.90;63.70;;;;;;5170780;27;19918;-66
2022/10/24 14:33:15;;;;;;;;;;;21.00;64.10;;;;;;5189176;27;19922;-67
2022/10/24 14:35:40;;;;;;;;;;;20.90;63.70;;;;;;5169960;27;20343;-67
2022/10/24 14:38:06;;;;;;;;;;;21.00;63.80;;;;;;5153618;27;20236;-67
2022/10/24 14:40:32;;;;;;;;;;;20.90;63.70;;;;;;5169841;27;19923;-67
2022/10/24 14:42:58;;;;;;;;;;;20.90;63.80;;;;;;5159456;27;19946;-67
2022/10/24 14:45:25;;;;;;;;;;;20.90;63.80;;;;;;5168647;27;20021;-66
2022/10/24 14:47:52;;;;;;;;;;;20.90;63.80;;;;;;5179768;27;19927;-67
2022/10/24 14:50:37;;;;;;;;;;;20.90;63.80;;;;;;5158178;27;20358;-66
2022/10/24 14:53:03;;;;;;;;;;;20.90;63.90;;;;;;5150296;27;19919;-67
2022/10/24 14:55:29;;;;;;;;;;;20.80;63.80;;;;;;5173368;27;20063;-67
2022/10/24 14:57:55;;;;;;;;;;;20.80;63.90;;;;;;5156231;27;20398;-68
2022/10/24 15:00:25;;;;;;;;;;;20.80;63.90;;;;;;5131829;27;19942;-68
2022/10/24 15:02:52;;;;;;;;;;;20.80;63.80;;;;;;5148491;27;20009;-68
2022/10/24 15:08:01;;;;;;;;;;;20.80;64.00;;;;;;5154925;27;20012;-66
2022/10/24 15:13:20;;;;;;;;;;;20.80;64.00;;;;;;5106385;27;20276;-69
2022/10/24 15:18:28;;;;;;;;;;;20.80;64.00;;;;;;5126057;27;1867379;-67
2022/10/24 15:21:03;;;;;;;;;;;20.70;64.00;;;;;;5172539;27;19927;-66
2022/10/24 15:23:32;;;;;;;;;;;20.70;64.30;;;;;;5172528;27;19918;-66
2022/10/24 15:31:26;;;;;;;;;;;20.60;64.20;;;;;;5129287;27;20089;-67
2022/10/24 15:33:52;;;;;;;;;;;20.60;64.10;;;;;;5127978;28;20345;-67
2022/10/24 15:36:21;;;;;;;;;;;20.60;64.20;;;;;;5128199;28;19924;-67
2022/10/24 15:38:47;;;;;;;;;;;20.60;64.20;;;;;;5129888;27;19924;-66
2022/10/24 15:41:13;;;;;;;;;;;20.60;64.50;;;;;;5127763;28;19920;-67
2022/10/24 15:43:38;;;;;;;;;;;20.60;64.20;;;;;;5111180;28;19927;-67
2022/10/24 15:46:04;;;;;;;;;;;20.60;64.30;;;;;;5128490;28;19926;-66
2022/10/24 15:48:29;;;;;;;;;;;20.60;64.20;;;;;;5128451;28;19920;-67
2022/10/24 15:50:55;;;;;;;;;;;20.60;64.50;;;;;;5128228;28;20176;-66
2022/10/24 15:53:20;;;;;;;;;;;20.60;64.50;;;;;;5128229;28;20006;-67
2022/10/24 15:55:46;;;;;;;;;;;20.60;64.50;;;;;;5128204;28;20010;-68
2022/10/24 15:58:12;;;;;;;;;;;20.60;64.40;;;;;;5128195;28;19920;-67
2022/10/24 16:00:38;;;;;;;;;;;20.50;64.50;;;;;;5128830;27;20014;-67
2022/10/24 16:03:05;;;;;;;;;;;20.50;64.60;;;;;;5127454;28;20367;-67
2022/10/24 16:05:35;;;;;;;;;;;20.50;64.50;;;;;;5117065;28;20014;-66
2022/10/24 16:08:00;;;;;;;;;;;20.50;64.60;;;;;;5107999;28;19928;-66